Time;durP1;ratioP1;P1;durP2;ratioP2;P2;SDS_P1;SDS_P2;PMS_P1;PMS_P2;Temp;Humidity;BMP_temperature;BMP_pressure;BME280_temperature;BME280_humidity;BME280_pressure;Samples;Min_cycle;Max_cycle;Signal;HPM_P1;HPM_P2
2022/11/02 00:00:22;;;;;;;44.57;28.33;;;;;;;;;;4932103;28;20186;-36
2022/11/02 00:02:48;;;;;;;39.27;26.17;;;;;;;;;;4936337;28;20293;-35
2022/11/02 00:05:14;;;;;;;40.17;25.63;;;;;;;;;;4924897;28;20277;-35
2022/11/02 00:07:40;;;;;;;39.63;26.10;;;;;;;;;;4935278;28;20706;-35
2022/11/02 00:10:07;;;;;;;37.23;25.53;;;;;;;;;;4928681;28;20233;-35
2022/11/02 00:12:33;;;;;;;34.37;25.47;;;;;;;;;;4936095;28;20361;-34
2022/11/02 00:14:59;;;;;;;37.20;24.97;;;;;;;;;;4938434;28;20189;-35
2022/11/02 00:17:25;;;;;;;37.77;25.73;;;;;;;;;;4936872;28;21035;-36
2022/11/02 00:19:51;;;;;;;39.97;26.53;;;;;;;;;;4932140;28;20190;-35
2022/11/02 00:22:17;;;;;;;40.47;27.00;;;;;;;;;;4932434;28;20206;-35
2022/11/02 00:24:44;;;;;;;34.90;24.27;;;;;;;;;;4935142;28;20179;-34
2022/11/02 00:27:10;;;;;;;36.60;25.43;;;;;;;;;;4932484;28;20673;-35
2022/11/02 00:29:36;;;;;;;38.37;25.90;;;;;;;;;;4934376;28;20190;-36
2022/11/02 00:32:02;;;;;;;33.67;25.30;;;;;;;;;;4928852;28;20183;-35
2022/11/02 00:34:28;;;;;;;38.87;26.70;;;;;;;;;;4932290;28;20722;-35
2022/11/02 00:36:54;;;;;;;38.43;27.33;;;;;;;;;;4933326;28;20211;-34
2022/11/02 00:39:20;;;;;;;40.90;28.60;;;;;;;;;;4931628;28;20182;-35
2022/11/02 00:41:47;;;;;;;44.43;28.60;;;;;;;;;;4937817;28;20552;-35
2022/11/02 00:44:13;;;;;;;39.37;26.13;;;;;;;;;;4931452;28;20185;-35
2022/11/02 00:46:39;;;;;;;39.93;27.43;;;;;;;;;;4929994;28;20218;-35
2022/11/02 00:49:05;;;;;;;41.97;28.07;;;;;;;;;;4935759;28;20225;-35
2022/11/02 00:51:31;;;;;;;41.27;27.53;;;;;;;;;;4935932;28;20189;-35
2022/11/02 00:53:57;;;;;;;36.27;25.77;;;;;;;;;;4934016;28;20182;-35
2022/11/02 00:56:23;;;;;;;35.57;25.00;;;;;;;;;;4935150;28;20394;-35
2022/11/02 00:58:49;;;;;;;38.27;26.60;;;;;;;;;;4935202;28;20191;-35
2022/11/02 01:01:15;;;;;;;40.37;27.73;;;;;;;;;;4936520;28;20458;-35
2022/11/02 01:03:41;;;;;;;38.57;27.57;;;;;;;;;;4933752;28;20726;-35
2022/11/02 01:06:08;;;;;;;38.93;26.97;;;;;;;;;;4936227;28;20974;-35
2022/11/02 01:08:34;;;;;;;39.83;27.93;;;;;;;;;;4936938;28;20390;-36
2022/11/02 01:11:14;;;;;;;37.30;27.87;;;;;;;;;;4942113;28;20616;-35
2022/11/02 01:13:40;;;;;;;39.33;28.47;;;;;;;;;;4939000;28;20584;-35
2022/11/02 01:16:07;;;;;;;40.23;28.20;;;;;;;;;;4936203;28;20182;-35
2022/11/02 01:18:33;;;;;;;46.53;31.47;;;;;;;;;;4934193;28;20233;-36
2022/11/02 01:20:59;;;;;;;41.23;28.83;;;;;;;;;;4941572;28;20218;-36
2022/11/02 01:23:25;;;;;;;45.63;30.07;;;;;;;;;;4934524;28;20167;-35
2022/11/02 01:25:52;;;;;;;44.43;30.07;;;;;;;;;;4936902;28;20422;-35
2022/11/02 01:28:18;;;;;;;48.67;33.20;;;;;;;;;;4937229;28;20232;-36
2022/11/02 01:30:47;;;;;;;46.73;30.60;;;;;;;;;;4937557;28;20170;-35
2022/11/02 01:33:13;;;;;;;40.60;29.73;;;;;;;;;;4942405;28;20241;-34
2022/11/02 01:35:39;;;;;;;44.90;31.57;;;;;;;;;;4937722;28;20627;-35
2022/11/02 01:38:05;;;;;;;48.90;31.60;;;;;;;;;;4936912;28;20601;-35
2022/11/02 01:40:38;;;;;;;45.37;30.40;;;;;;;;;;4938891;28;20616;-35
2022/11/02 01:43:21;;;;;;;45.33;31.73;;;;;;;;;;4942403;28;20241;-35
2022/11/02 01:45:48;;;;;;;41.10;30.17;;;;;;;;;;4938697;28;20486;-36
2022/11/02 01:48:14;;;;;;;40.73;30.53;;;;;;;;;;4940196;28;20191;-35
2022/11/02 01:50:40;;;;;;;42.83;29.93;;;;;;;;;;4943176;28;20229;-36
2022/11/02 01:53:06;;;;;;;44.43;29.07;;;;;;;;;;4945264;28;20290;-36
2022/11/02 01:55:34;;;;;;;44.30;29.23;;;;;;;;;;4938717;28;20529;-36
2022/11/02 01:58:02;;;;;;;44.67;29.87;;;;;;;;;;4943828;28;20179;-37
2022/11/02 02:00:28;;;;;;;48.60;31.97;;;;;;;;;;4941836;28;20179;-35
2022/11/02 02:03:05;;;;;;;49.03;32.53;;;;;;;;;;4941698;28;20493;-36
2022/11/02 02:05:32;;;;;;;49.77;32.37;;;;;;;;;;4942766;28;20179;-36
2022/11/02 02:07:58;;;;;;;46.10;31.17;;;;;;;;;;4940138;28;20206;-36
2022/11/02 02:10:24;;;;;;;44.60;31.40;;;;;;;;;;4942554;28;20233;-37
2022/11/02 02:12:50;;;;;;;47.97;31.87;;;;;;;;;;4941067;28;20469;-36
2022/11/02 02:15:16;;;;;;;42.80;29.57;;;;;;;;;;4939802;28;20179;-36
2022/11/02 02:17:43;;;;;;;45.83;32.17;;;;;;;;;;4937905;28;20185;-36
2022/11/02 02:20:18;;;;;;;48.97;32.83;;;;;;;;;;4938937;28;20350;-35
2022/11/02 02:23:03;;;;;;;49.60;33.80;;;;;;;;;;4938325;28;20174;-36
2022/11/02 02:25:47;;;;;;;47.30;32.13;;;;;;;;;;4939930;28;20609;-36
2022/11/02 02:28:14;;;;;;;46.37;32.27;;;;;;;;;;4938199;28;20215;-36
2022/11/02 02:30:45;;;;;;;47.73;32.53;;;;;;;;;;4937043;28;20627;-36
2022/11/02 02:33:14;;;;;;;45.77;32.80;;;;;;;;;;4939804;28;20175;-36
2022/11/02 02:35:43;;;;;;;55.27;35.03;;;;;;;;;;4938743;28;20175;-35
2022/11/02 02:38:19;;;;;;;49.23;35.60;;;;;;;;;;4936728;28;20730;-36
2022/11/02 02:40:49;;;;;;;52.87;35.23;;;;;;;;;;4939223;28;20252;-36
2022/11/02 02:43:18;;;;;;;49.50;34.93;;;;;;;;;;4939921;28;20501;-36
2022/11/02 02:45:52;;;;;;;49.83;35.60;;;;;;;;;;4936972;28;20207;-36
2022/11/02 02:48:19;;;;;;;51.10;35.20;;;;;;;;;;4934866;28;20200;-36
2022/11/02 02:51:09;;;;;;;54.40;37.47;;;;;;;;;;4936336;28;20179;-37
2022/11/02 02:53:39;;;;;;;57.47;38.63;;;;;;;;;;4936994;28;20619;-35
2022/11/02 02:56:06;;;;;;;55.67;38.73;;;;;;;;;;4929714;28;20509;-36
2022/11/02 02:58:44;;;;;;;53.70;34.47;;;;;;;;;;4936556;28;20253;-37
2022/11/02 03:01:12;;;;;;;57.37;38.70;;;;;;;;;;4935617;28;20176;-36
2022/11/02 03:03:40;;;;;;;52.93;37.40;;;;;;;;;;4936221;28;20630;-36
2022/11/02 03:06:09;;;;;;;53.40;36.73;;;;;;;;;;4934849;28;20428;-36
2022/11/02 03:08:37;;;;;;;50.40;36.57;;;;;;;;;;4935751;28;20176;-36
2022/11/02 03:11:14;;;;;;;49.17;32.93;;;;;;;;;;4942083;28;20810;-36
2022/11/02 03:13:47;;;;;;;50.43;35.33;;;;;;;;;;4939376;28;20209;-36
2022/11/02 03:16:13;;;;;;;51.63;34.03;;;;;;;;;;4942201;28;20249;-36
2022/11/02 03:19:02;;;;;;;55.20;35.47;;;;;;;;;;4942528;28;20170;-36
2022/11/02 03:21:34;;;;;;;50.63;35.03;;;;;;;;;;4927310;28;20527;-36
2022/11/02 03:24:04;;;;;;;46.53;32.37;;;;;;;;;;4944275;28;20190;-36
2022/11/02 03:26:36;;;;;;;56.67;37.07;;;;;;;;;;4936325;28;20533;-36
2022/11/02 03:29:21;;;;;;;49.53;33.63;;;;;;;;;;4936662;28;20201;-37
2022/11/02 03:31:56;;;;;;;58.27;36.40;;;;;;;;;;4942992;28;20622;-36
2022/11/02 03:34:25;;;;;;;53.87;36.50;;;;;;;;;;4939668;28;20481;-36
2022/11/02 03:36:53;;;;;;;54.37;35.27;;;;;;;;;;4938797;28;20451;-36
2022/11/02 03:39:22;;;;;;;55.47;35.90;;;;;;;;;;4935097;28;20730;-36
2022/11/02 03:41:50;;;;;;;51.87;35.00;;;;;;;;;;4941957;28;20616;-36
2022/11/02 03:44:19;;;;;;;49.93;33.07;;;;;;;;;;4937954;28;20191;-36
2022/11/02 03:46:45;;;;;;;48.87;31.97;;;;;;;;;;4936245;28;20657;-36
2022/11/02 03:49:18;;;;;;;50.13;34.00;;;;;;;;;;4937961;28;20324;-35
2022/11/02 03:51:45;;;;;;;48.23;32.90;;;;;;;;;;4936012;28;20174;-36
2022/11/02 03:54:47;;;;;;;47.63;31.90;;;;;;;;;;4937390;28;20181;-36
2022/11/02 03:57:22;;;;;;;55.83;33.90;;;;;;;;;;4915382;28;20198;-36
2022/11/02 03:59:48;;;;;;;51.87;34.93;;;;;;;;;;4932080;28;20190;-36
2022/11/02 04:02:15;;;;;;;57.53;35.33;;;;;;;;;;4926692;28;20608;-36
2022/11/02 04:04:51;;;;;;;55.90;36.07;;;;;;;;;;4936544;28;20183;-36
2022/11/02 04:07:23;;;;;;;51.93;36.50;;;;;;;;;;4933416;28;20832;-36
2022/11/02 04:09:49;;;;;;;53.80;35.10;;;;;;;;;;4935559;28;20288;-37
2022/11/02 04:15:00;;;;;;;56.83;37.50;;;;;;;;;;4934841;28;20254;-36
2022/11/02 04:20:11;;;;;;;86.00;53.50;;;;;;;;;;4935461;28;20248;-36
2022/11/02 04:25:23;;;;;;;95.53;60.80;;;;;;;;;;4935218;28;20201;-36
2022/11/02 04:27:50;;;;;;;123.43;79.87;;;;;;;;;;4937168;28;20272;-34
2022/11/02 04:30:17;;;;;;;121.63;81.67;;;;;;;;;;4937816;28;20838;-36
2022/11/02 04:35:30;;;;;;;114.93;75.90;;;;;;;;;;4934757;28;20623;-35
2022/11/02 04:40:41;;;;;;;146.53;93.27;;;;;;;;;;4932051;28;20263;-36
2022/11/02 04:43:07;;;;;;;126.50;83.57;;;;;;;;;;4934716;28;20743;-35
2022/11/02 04:45:33;;;;;;;121.60;76.60;;;;;;;;;;4937627;28;21179;-35
2022/11/02 04:48:00;;;;;;;109.43;71.83;;;;;;;;;;4935395;28;20198;-36
2022/11/02 04:50:26;;;;;;;110.67;70.50;;;;;;;;;;4932760;28;20175;-36
2022/11/02 04:52:59;;;;;;;101.33;65.07;;;;;;;;;;4936279;28;21662;-36
2022/11/02 04:55:25;;;;;;;103.77;68.87;;;;;;;;;;4935330;28;20598;-36
2022/11/02 04:57:52;;;;;;;115.30;74.83;;;;;;;;;;4933295;28;20186;-36
2022/11/02 05:00:18;;;;;;;115.63;75.10;;;;;;;;;;4933814;28;20273;-35
2022/11/02 05:02:46;;;;;;;109.50;71.93;;;;;;;;;;4938715;28;20178;-36
2022/11/02 05:05:12;;;;;;;120.33;77.60;;;;;;;;;;4936338;28;20178;-36
2022/11/02 05:07:38;;;;;;;107.23;69.60;;;;;;;;;;4937408;28;20285;-36
2022/11/02 05:10:04;;;;;;;117.17;73.13;;;;;;;;;;4941235;28;20174;-36
2022/11/02 05:12:31;;;;;;;100.23;65.70;;;;;;;;;;4937905;28;20556;-36
2022/11/02 05:14:57;;;;;;;108.70;68.43;;;;;;;;;;4936984;28;20766;-37
2022/11/02 05:17:23;;;;;;;109.77;70.07;;;;;;;;;;4939392;28;20178;-36
2022/11/02 05:19:49;;;;;;;108.07;73.73;;;;;;;;;;4937945;28;20289;-36
2022/11/02 05:22:15;;;;;;;102.73;69.17;;;;;;;;;;4938550;28;21121;-35
2022/11/02 05:24:41;;;;;;;138.13;78.87;;;;;;;;;;4939889;28;20682;-36
2022/11/02 05:27:08;;;;;;;119.10;76.60;;;;;;;;;;4944319;28;20272;-36
2022/11/02 05:29:34;;;;;;;113.10;71.10;;;;;;;;;;4938574;28;20189;-36
2022/11/02 05:32:00;;;;;;;109.90;69.23;;;;;;;;;;4937175;28;20735;-36
2022/11/02 05:34:27;;;;;;;102.47;64.63;;;;;;;;;;4940692;28;20179;-36
2022/11/02 05:36:53;;;;;;;105.07;64.60;;;;;;;;;;4942414;28;20727;-37
2022/11/02 05:39:19;;;;;;;108.37;70.07;;;;;;;;;;4938515;28;20632;-35
2022/11/02 05:41:45;;;;;;;112.40;69.43;;;;;;;;;;4936266;28;20715;-36
2022/11/02 05:44:11;;;;;;;99.43;61.37;;;;;;;;;;4936663;28;20183;-35
2022/11/02 05:46:37;;;;;;;97.57;60.67;;;;;;;;;;4938809;28;20210;-36
2022/11/02 05:49:03;;;;;;;102.70;63.57;;;;;;;;;;4941411;28;21197;-36
2022/11/02 05:51:29;;;;;;;99.80;62.97;;;;;;;;;;4937658;28;20175;-36
2022/11/02 05:53:55;;;;;;;108.80;67.97;;;;;;;;;;4938090;28;20583;-36
2022/11/02 05:56:21;;;;;;;109.03;68.40;;;;;;;;;;4942695;28;20718;-36
2022/11/02 05:58:47;;;;;;;101.77;65.40;;;;;;;;;;4940712;28;20172;-36
2022/11/02 06:01:13;;;;;;;103.70;66.53;;;;;;;;;;4942737;28;20404;-35
2022/11/02 06:03:39;;;;;;;95.37;62.90;;;;;;;;;;4937005;28;20182;-36
2022/11/02 06:06:06;;;;;;;110.63;64.97;;;;;;;;;;4941124;28;20170;-36
2022/11/02 06:08:33;;;;;;;110.10;63.20;;;;;;;;;;4939986;28;20774;-36
2022/11/02 06:11:03;;;;;;;114.70;68.90;;;;;;;;;;4935049;28;20179;-35
2022/11/02 06:13:29;;;;;;;108.27;66.60;;;;;;;;;;4937449;28;20277;-36
2022/11/02 06:15:58;;;;;;;105.50;63.90;;;;;;;;;;4940222;28;20350;-36
2022/11/02 06:18:24;;;;;;;93.63;59.47;;;;;;;;;;4944290;28;20191;-36
2022/11/02 06:20:50;;;;;;;109.60;66.50;;;;;;;;;;4937197;28;20266;-36
2022/11/02 06:23:17;;;;;;;107.90;63.83;;;;;;;;;;4932733;28;20234;-36
2022/11/02 06:25:46;;;;;;;97.90;61.17;;;;;;;;;;4936761;28;20727;-36
2022/11/02 06:28:12;;;;;;;100.93;64.40;;;;;;;;;;4939952;28;20221;-36
2022/11/02 06:30:38;;;;;;;105.27;66.63;;;;;;;;;;4934994;28;20560;-35
2022/11/02 06:33:06;;;;;;;117.87;69.60;;;;;;;;;;4942406;28;20199;-36
2022/11/02 06:35:32;;;;;;;101.83;63.80;;;;;;;;;;4937766;28;20197;-36
2022/11/02 06:37:58;;;;;;;103.70;65.03;;;;;;;;;;4938371;28;20178;-36
2022/11/02 06:40:24;;;;;;;106.40;67.20;;;;;;;;;;4935393;28;20262;-37
2022/11/02 06:42:55;;;;;;;118.23;72.43;;;;;;;;;;4944022;28;20217;-36
2022/11/02 06:45:21;;;;;;;112.47;71.37;;;;;;;;;;4944369;28;20498;-36
2022/11/02 06:47:48;;;;;;;112.83;72.53;;;;;;;;;;4938228;28;20210;-36
2022/11/02 06:50:14;;;;;;;101.47;65.67;;;;;;;;;;4938782;28;20729;-36
2022/11/02 06:52:49;;;;;;;111.63;69.53;;;;;;;;;;4937689;28;20688;-37
2022/11/02 06:55:15;;;;;;;99.40;63.77;;;;;;;;;;4942440;28;20540;-36
2022/11/02 06:57:43;;;;;;;113.63;68.23;;;;;;;;;;4938576;28;20182;-36
2022/11/02 07:00:16;;;;;;;96.37;63.27;;;;;;;;;;4940310;28;20191;-36
2022/11/02 07:02:42;;;;;;;106.13;66.33;;;;;;;;;;4937030;28;20179;-36
2022/11/02 07:05:08;;;;;;;102.93;63.47;;;;;;;;;;4937282;28;20190;-36
2022/11/02 07:07:34;;;;;;;105.47;65.17;;;;;;;;;;4938776;28;20199;-36
2022/11/02 07:10:00;;;;;;;94.33;60.47;;;;;;;;;;4936943;28;20282;-37
2022/11/02 07:12:26;;;;;;;89.73;59.90;;;;;;;;;;4938127;28;20786;-36
2022/11/02 07:14:53;;;;;;;94.23;60.47;;;;;;;;;;4937772;28;20270;-36
2022/11/02 07:17:19;;;;;;;101.47;64.90;;;;;;;;;;4936522;28;20251;-37
2022/11/02 07:19:45;;;;;;;99.77;65.17;;;;;;;;;;4934169;28;21034;-36
2022/11/02 07:22:11;;;;;;;99.70;62.93;;;;;;;;;;4937580;28;20973;-37
2022/11/02 07:24:37;;;;;;;94.03;58.23;;;;;;;;;;4939155;28;20198;-36
2022/11/02 07:27:03;;;;;;;82.33;53.23;;;;;;;;;;4938710;28;20644;-36
2022/11/02 07:29:29;;;;;;;83.53;52.13;;;;;;;;;;4935092;28;20191;-36
2022/11/02 07:31:55;;;;;;;96.17;56.47;;;;;;;;;;4935337;28;20184;-37
2022/11/02 07:34:21;;;;;;;85.97;55.00;;;;;;;;;;4938325;28;20175;-36
2022/11/02 07:36:47;;;;;;;78.33;51.03;;;;;;;;;;4938353;28;20183;-36
2022/11/02 07:39:13;;;;;;;81.77;53.53;;;;;;;;;;4936546;28;20171;-37
2022/11/02 07:41:39;;;;;;;86.20;52.37;;;;;;;;;;4943042;28;20178;-36
2022/11/02 07:44:06;;;;;;;71.53;47.47;;;;;;;;;;4938399;28;20665;-36
2022/11/02 07:46:32;;;;;;;68.53;44.97;;;;;;;;;;4935439;28;20756;-36
2022/11/02 07:48:59;;;;;;;61.40;42.37;;;;;;;;;;4936119;28;20234;-37
2022/11/02 07:51:25;;;;;;;51.77;38.77;;;;;;;;;;4938394;28;20706;-36
2022/11/02 07:53:51;;;;;;;55.40;37.07;;;;;;;;;;4936063;28;20182;-37
2022/11/02 07:56:17;;;;;;;48.20;34.93;;;;;;;;;;4936472;28;20210;-36
2022/11/02 07:58:43;;;;;;;50.40;35.33;;;;;;;;;;4942109;28;20577;-36
2022/11/02 08:01:09;;;;;;;48.57;32.70;;;;;;;;;;4935091;28;20182;-37
2022/11/02 08:03:35;;;;;;;48.47;34.03;;;;;;;;;;4936727;28;20186;-37
2022/11/02 08:06:04;;;;;;;44.27;33.17;;;;;;;;;;4943774;28;20191;-36
2022/11/02 08:08:30;;;;;;;49.13;33.17;;;;;;;;;;4942336;28;20206;-37
2022/11/02 08:11:02;;;;;;;43.80;32.40;;;;;;;;;;4934664;28;20185;-36
2022/11/02 08:13:28;;;;;;;46.97;32.50;;;;;;;;;;4936656;28;20178;-37
2022/11/02 08:15:54;;;;;;;42.37;30.70;;;;;;;;;;4942093;28;20240;-37
2022/11/02 08:18:27;;;;;;;44.47;31.77;;;;;;;;;;4940178;28;20178;-37
2022/11/02 08:20:57;;;;;;;40.57;29.37;;;;;;;;;;4933953;28;20288;-37
2022/11/02 08:23:24;;;;;;;38.63;29.57;;;;;;;;;;4934977;28;20183;-37
2022/11/02 08:25:51;;;;;;;40.00;28.20;;;;;;;;;;4934991;28;20514;-37
2022/11/02 08:28:19;;;;;;;41.33;29.20;;;;;;;;;;4940528;28;20209;-37
2022/11/02 08:30:45;;;;;;;36.70;28.43;;;;;;;;;;4938101;28;20246;-36
2022/11/02 08:33:14;;;;;;;36.50;27.17;;;;;;;;;;4937734;28;20183;-37
2022/11/02 08:35:40;;;;;;;37.90;25.13;;;;;;;;;;4934886;28;21012;-37
2022/11/02 08:38:06;;;;;;;34.67;25.97;;;;;;;;;;4941011;28;20180;-36
2022/11/02 08:40:33;;;;;;;33.30;24.97;;;;;;;;;;4936745;28;20174;-37
2022/11/02 08:43:03;;;;;;;34.27;23.77;;;;;;;;;;4939315;28;20470;-37
2022/11/02 08:45:31;;;;;;;31.63;24.70;;;;;;;;;;4940978;28;20198;-37
2022/11/02 08:47:57;;;;;;;40.03;26.00;;;;;;;;;;4939208;28;20203;-37
2022/11/02 08:50:24;;;;;;;39.97;25.80;;;;;;;;;;4937098;28;20183;-36
2022/11/02 08:52:50;;;;;;;35.20;24.80;;;;;;;;;;4939427;28;20183;-38
2022/11/02 08:55:16;;;;;;;38.67;25.47;;;;;;;;;;4935331;28;20244;-37
2022/11/02 08:57:49;;;;;;;41.97;25.20;;;;;;;;;;4940797;28;20466;-37
2022/11/02 09:00:16;;;;;;;39.07;24.70;;;;;;;;;;4935634;28;20221;-37
2022/11/02 09:02:42;;;;;;;37.93;25.90;;;;;;;;;;4939746;28;20512;-36
2022/11/02 09:05:09;;;;;;;43.70;27.67;;;;;;;;;;4936817;28;20183;-36
2022/11/02 09:07:35;;;;;;;43.17;27.13;;;;;;;;;;4936864;28;20218;-37
2022/11/02 09:10:02;;;;;;;38.77;27.20;;;;;;;;;;4938473;28;20546;-38
2022/11/02 09:12:28;;;;;;;46.83;30.07;;;;;;;;;;4939450;28;20206;-38
2022/11/02 09:14:54;;;;;;;45.83;30.80;;;;;;;;;;4940808;28;20508;-37
2022/11/02 09:17:20;;;;;;;40.40;29.20;;;;;;;;;;4942136;28;20190;-36
2022/11/02 09:19:46;;;;;;;43.90;29.73;;;;;;;;;;4935502;28;20187;-37
2022/11/02 09:22:12;;;;;;;41.90;27.83;;;;;;;;;;4933772;28;20186;-37
2022/11/02 09:24:38;;;;;;;41.03;28.17;;;;;;;;;;4939733;28;20588;-37
2022/11/02 09:27:04;;;;;;;39.67;27.53;;;;;;;;;;4937144;28;20202;-36
2022/11/02 09:29:30;;;;;;;43.60;28.07;;;;;;;;;;4935743;28;20218;-37
2022/11/02 09:31:56;;;;;;;37.47;26.40;;;;;;;;;;4940394;28;20278;-37
2022/11/02 09:34:22;;;;;;;39.40;27.57;;;;;;;;;;4938950;28;20706;-36
2022/11/02 09:36:48;;;;;;;41.93;30.23;;;;;;;;;;4940134;28;20843;-37
2022/11/02 09:39:16;;;;;;;48.43;29.73;;;;;;;;;;4940715;28;20536;-37
2022/11/02 09:41:44;;;;;;;49.33;31.93;;;;;;;;;;4937837;28;20696;-37
2022/11/02 09:44:19;;;;;;;44.67;31.30;;;;;;;;;;4938870;28;20556;-36
2022/11/02 09:46:46;;;;;;;43.73;29.83;;;;;;;;;;4937133;28;20194;-37
2022/11/02 09:49:15;;;;;;;43.10;30.23;;;;;;;;;;4936928;28;20179;-37
2022/11/02 09:51:44;;;;;;;40.63;29.57;;;;;;;;;;4941440;28;20183;-37
2022/11/02 09:54:22;;;;;;;43.10;29.67;;;;;;;;;;4938947;28;20676;-37
2022/11/02 09:56:49;;;;;;;44.27;31.87;;;;;;;;;;4940298;28;20509;-37
2022/11/02 09:59:18;;;;;;;42.10;31.77;;;;;;;;;;4941595;28;20478;-36
2022/11/02 10:01:47;;;;;;;47.63;30.83;;;;;;;;;;4937690;28;20191;-37
2022/11/02 10:04:19;;;;;;;44.83;30.73;;;;;;;;;;4936531;28;20190;-36
2022/11/02 10:06:51;;;;;;;46.83;31.33;;;;;;;;;;4943448;28;20642;-37
2022/11/02 10:09:40;;;;;;;41.37;29.80;;;;;;;;;;4940686;28;20217;-37
2022/11/02 10:12:12;;;;;;;44.17;30.80;;;;;;;;;;4942615;28;20175;-37
2022/11/02 10:14:40;;;;;;;44.00;31.30;;;;;;;;;;4941407;28;20896;-36
2022/11/02 10:17:14;;;;;;;42.70;30.57;;;;;;;;;;4938500;28;20290;-37
2022/11/02 10:19:44;;;;;;;45.70;31.80;;;;;;;;;;4940864;28;20678;-36
2022/11/02 10:22:12;;;;;;;42.47;31.00;;;;;;;;;;4941500;28;20185;-35
2022/11/02 10:24:42;;;;;;;44.37;30.30;;;;;;;;;;4943280;28;20198;-37
2022/11/02 10:27:34;;;;;;;43.13;32.20;;;;;;;;;;4930302;28;20202;-36
2022/11/02 10:30:10;;;;;;;41.03;29.90;;;;;;;;;;4932034;28;20726;-37
2022/11/02 10:32:38;;;;;;;44.40;29.23;;;;;;;;;;4939672;28;20517;-36
2022/11/02 10:35:06;;;;;;;40.73;29.57;;;;;;;;;;4942296;28;20260;-36
2022/11/02 10:37:38;;;;;;;42.63;28.07;;;;;;;;;;4936183;28;20186;-37
2022/11/02 10:40:23;;;;;;;39.67;26.93;;;;;;;;;;4934355;28;20187;-36
2022/11/02 10:42:55;;;;;;;42.03;29.13;;;;;;;;;;4937905;28;20174;-37
2022/11/02 10:45:40;;;;;;;43.37;28.73;;;;;;;;;;4937202;28;20183;-37
2022/11/02 10:48:24;;;;;;;38.67;28.47;;;;;;;;;;4937899;28;20210;-36
2022/11/02 10:51:05;;;;;;;46.83;30.30;;;;;;;;;;4938664;28;20179;-36
2022/11/02 10:53:34;;;;;;;42.93;31.23;;;;;;;;;;4939839;28;20281;-35
2022/11/02 10:56:19;;;;;;;44.37;31.23;;;;;;;;;;4938326;28;20183;-37
2022/11/02 10:59:04;;;;;;;45.60;31.10;;;;;;;;;;4932539;28;20276;-37
2022/11/02 11:01:31;;;;;;;46.07;31.07;;;;;;;;;;4936798;28;20211;-37
2022/11/02 11:03:59;;;;;;;44.97;32.50;;;;;;;;;;4940152;28;20194;-38
2022/11/02 11:06:40;;;;;;;43.90;31.03;;;;;;;;;;4943882;28;20211;-36
2022/11/02 11:09:16;;;;;;;50.53;34.13;;;;;;;;;;4939455;28;20504;-36
2022/11/02 11:11:52;;;;;;;49.10;33.93;;;;;;;;;;4940438;28;20682;-37
2022/11/02 11:14:20;;;;;;;50.63;33.97;;;;;;;;;;4938706;28;20516;-36
2022/11/02 11:16:51;;;;;;;48.37;30.53;;;;;;;;;;4943109;28;20174;-37
2022/11/02 11:19:33;;;;;;;46.43;31.40;;;;;;;;;;4942640;28;20544;-36
2022/11/02 11:22:00;;;;;;;49.20;31.33;;;;;;;;;;4936468;28;20289;-37
2022/11/02 11:24:27;;;;;;;50.50;32.50;;;;;;;;;;4934208;28;20178;-37
2022/11/02 11:27:16;;;;;;;46.50;29.00;;;;;;;;;;4945149;28;20909;-37
2022/11/02 11:29:47;;;;;;;47.17;31.07;;;;;;;;;;4935404;28;20510;-36
2022/11/02 11:32:16;;;;;;;51.03;33.03;;;;;;;;;;4937081;28;20182;-36
2022/11/02 11:34:43;;;;;;;53.83;33.40;;;;;;;;;;4943715;28;20281;-35
2022/11/02 11:37:10;;;;;;;48.50;31.67;;;;;;;;;;4938315;28;20801;-37
2022/11/02 11:39:37;;;;;;;45.90;30.90;;;;;;;;;;4936783;28;20183;-37
2022/11/02 11:42:04;;;;;;;47.90;31.40;;;;;;;;;;4935173;28;20585;-37
2022/11/02 11:44:31;;;;;;;47.67;32.00;;;;;;;;;;4937404;28;20182;-37
2022/11/02 11:46:58;;;;;;;48.67;33.37;;;;;;;;;;4937471;28;21084;-37
2022/11/02 11:49:31;;;;;;;53.80;36.03;;;;;;;;;;4935559;28;20645;-37
2022/11/02 11:51:58;;;;;;;52.80;35.53;;;;;;;;;;4940141;28;20444;-38
2022/11/02 11:54:24;;;;;;;53.00;34.40;;;;;;;;;;4934799;28;20714;-37
2022/11/02 11:56:51;;;;;;;48.20;32.90;;;;;;;;;;4926704;28;20194;-37
2022/11/02 11:59:23;;;;;;;51.97;35.83;;;;;;;;;;4929643;28;20191;-37
2022/11/02 12:01:52;;;;;;;56.03;36.93;;;;;;;;;;4927795;28;20981;-37
2022/11/02 12:04:26;;;;;;;53.23;35.90;;;;;;;;;;4928899;28;20185;-37
2022/11/02 12:06:55;;;;;;;51.67;35.93;;;;;;;;;;4943152;28;20178;-37
2022/11/02 12:09:31;;;;;;;60.77;37.50;;;;;;;;;;4939962;28;20286;-36
2022/11/02 12:12:06;;;;;;;56.53;37.63;;;;;;;;;;4939289;28;20177;-37
2022/11/02 12:14:44;;;;;;;57.93;38.97;;;;;;;;;;4940527;28;20386;-37
2022/11/02 12:17:29;;;;;;;56.20;37.23;;;;;;;;;;4939398;28;20749;-37
2022/11/02 12:20:18;;;;;;;61.53;39.93;;;;;;;;;;4940199;28;20591;-37
2022/11/02 12:23:03;;;;;;;60.20;40.33;;;;;;;;;;4919441;28;20190;-37
2022/11/02 12:25:41;;;;;;;55.07;38.10;;;;;;;;;;4940861;28;20182;-37
2022/11/02 12:28:22;;;;;;;57.37;37.80;;;;;;;;;;4940086;28;20427;-37
2022/11/02 12:30:53;;;;;;;54.67;37.87;;;;;;;;;;4941454;28;20420;-37
2022/11/02 12:33:38;;;;;;;58.97;38.97;;;;;;;;;;4938377;28;20576;-37
2022/11/02 12:36:07;;;;;;;55.20;36.00;;;;;;;;;;4938142;28;20635;-37
2022/11/02 12:38:33;;;;;;;54.30;34.37;;;;;;;;;;4941446;28;20656;-37
2022/11/02 12:41:10;;;;;;;50.23;33.10;;;;;;;;;;4937122;28;20175;-37
2022/11/02 12:43:36;;;;;;;53.43;35.10;;;;;;;;;;4941118;28;20178;-37
2022/11/02 12:46:06;;;;;;;56.37;34.70;;;;;;;;;;4941029;28;20454;-37
2022/11/02 12:48:32;;;;;;;51.47;34.23;;;;;;;;;;4943266;28;20193;-37
2022/11/02 12:51:01;;;;;;;52.73;34.60;;;;;;;;;;4940767;28;20703;-36
2022/11/02 12:53:30;;;;;;;55.93;34.47;;;;;;;;;;4942243;28;20174;-37
2022/11/02 12:55:58;;;;;;;55.90;34.40;;;;;;;;;;4944191;28;20170;-37
2022/11/02 12:58:26;;;;;;;50.70;33.77;;;;;;;;;;4938876;28;21013;-37
2022/11/02 13:00:58;;;;;;;51.50;32.73;;;;;;;;;;4938418;28;20960;-37
2022/11/02 13:03:39;;;;;;;49.60;29.97;;;;;;;;;;4943320;28;20218;-37
2022/11/02 13:06:09;;;;;;;48.70;30.57;;;;;;;;;;4938898;28;20175;-37
2022/11/02 13:08:44;;;;;;;50.17;29.50;;;;;;;;;;4938827;28;20198;-37
2022/11/02 13:11:14;;;;;;;45.07;29.17;;;;;;;;;;4935879;28;20592;-37
2022/11/02 13:13:48;;;;;;;53.77;30.03;;;;;;;;;;4938784;28;20178;-38
2022/11/02 13:16:15;;;;;;;47.30;30.80;;;;;;;;;;4936627;28;20717;-37
2022/11/02 13:18:47;;;;;;;51.23;30.63;;;;;;;;;;4941372;28;20619;-37
2022/11/02 13:21:13;;;;;;;46.53;29.53;;;;;;;;;;4938010;28;20178;-37
2022/11/02 13:23:44;;;;;;;48.57;30.27;;;;;;;;;;4942423;28;20611;-37
2022/11/02 13:26:36;;;;;;;42.80;27.87;;;;;;;;;;4940753;28;20555;-37
2022/11/02 13:29:06;;;;;;;44.00;28.00;;;;;;;;;;4935968;28;20567;-36
2022/11/02 13:31:35;;;;;;;41.27;26.70;;;;;;;;;;4939827;28;20190;-38
2022/11/02 13:34:05;;;;;;;43.70;25.93;;;;;;;;;;4941729;28;20187;-37
2022/11/02 13:36:31;;;;;;;40.27;27.13;;;;;;;;;;4940765;28;20392;-37
2022/11/02 13:39:07;;;;;;;43.47;27.87;;;;;;;;;;4939890;28;20171;-36
2022/11/02 13:41:42;;;;;;;38.93;25.07;;;;;;;;;;4940165;28;20209;-36
2022/11/02 13:44:15;;;;;;;44.73;28.67;;;;;;;;;;4940699;28;20592;-36
2022/11/02 13:46:41;;;;;;;48.83;29.83;;;;;;;;;;4947861;28;20171;-37
2022/11/02 13:49:12;;;;;;;47.73;29.87;;;;;;;;;;4944604;28;20722;-37
2022/11/02 13:51:42;;;;;;;41.93;28.13;;;;;;;;;;4940416;28;20842;-37
2022/11/02 13:54:19;;;;;;;53.30;31.97;;;;;;;;;;4943229;28;20256;-37
2022/11/02 13:56:46;;;;;;;48.83;32.13;;;;;;;;;;4943297;28;20170;-37
2022/11/02 13:59:20;;;;;;;47.80;31.77;;;;;;;;;;4943134;28;20577;-37
2022/11/02 14:01:47;;;;;;;54.63;33.23;;;;;;;;;;4942997;28;20181;-37
2022/11/02 14:04:14;;;;;;;51.27;32.73;;;;;;;;;;4940047;28;20512;-37
2022/11/02 14:06:57;;;;;;;50.43;32.73;;;;;;;;;;4943781;28;20687;-37
2022/11/02 14:09:39;;;;;;;57.83;33.07;;;;;;;;;;4942034;28;20602;-37
2022/11/02 14:12:17;;;;;;;53.80;30.47;;;;;;;;;;4954805;28;20837;-37
2022/11/02 14:14:44;;;;;;;46.57;27.90;;;;;;;;;;4943296;28;20454;-37
2022/11/02 14:17:11;;;;;;;52.83;32.10;;;;;;;;;;4944138;28;20747;-36
2022/11/02 14:19:43;;;;;;;53.33;31.00;;;;;;;;;;4937968;28;20175;-37
2022/11/02 14:22:11;;;;;;;50.23;31.60;;;;;;;;;;4926468;28;20218;-37
2022/11/02 14:24:38;;;;;;;51.93;31.23;;;;;;;;;;4927604;28;20395;-36
2022/11/02 14:27:04;;;;;;;53.20;31.27;;;;;;;;;;4932291;28;20674;-37
2022/11/02 14:29:45;;;;;;;50.47;30.77;;;;;;;;;;4929663;28;21047;-37
2022/11/02 14:32:11;;;;;;;50.60;31.40;;;;;;;;;;4929281;28;20176;-37
2022/11/02 14:34:40;;;;;;;48.43;29.57;;;;;;;;;;4929451;28;20175;-37
2022/11/02 14:37:25;;;;;;;47.53;29.97;;;;;;;;;;4931311;28;20175;-37
2022/11/02 14:40:06;;;;;;;53.83;30.17;;;;;;;;;;4928810;28;20191;-37
2022/11/02 14:42:32;;;;;;;50.47;30.83;;;;;;;;;;4930753;28;20497;-37